createdAt,value
2018-10-03T00:00:09.577Z,9.80
2018-10-03T00:02:12.608Z,9.70
2018-10-03T00:04:15.589Z,9.70
2018-10-03T00:06:18.588Z,9.70
2018-10-03T00:08:22.901Z,9.60
2018-10-03T00:10:25.917Z,9.70
2018-10-03T00:12:28.913Z,9.70
2018-10-03T00:14:31.928Z,9.70
2018-10-03T00:16:35.567Z,9.70
2018-10-03T00:18:38.609Z,9.70
2018-10-03T00:20:41.605Z,9.70
2018-10-03T00:22:44.944Z,9.70
2018-10-03T00:24:47.926Z,9.70
2018-10-03T00:26:52.188Z,9.60
2018-10-03T00:28:55.236Z,9.60
2018-10-03T00:30:58.251Z,9.60
2018-10-03T00:33:01.257Z,9.60
2018-10-03T00:35:04.783Z,9.60
2018-10-03T00:37:07.853Z,9.60
2018-10-03T00:39:11.315Z,9.70
2018-10-03T00:41:14.633Z,9.70
2018-10-03T00:43:17.613Z,9.80
2018-10-03T00:45:22.001Z,9.80
2018-10-03T00:47:25.038Z,9.80
2018-10-03T00:49:28.025Z,9.80
2018-10-03T00:51:31.212Z,9.80
2018-10-03T00:53:34.241Z,9.70
2018-10-03T00:55:37.236Z,9.70
2018-10-03T00:57:40.677Z,9.70
2018-10-03T00:59:43.705Z,9.70
2018-10-03T01:01:46.805Z,9.80
2018-10-03T01:03:49.820Z,9.80
2018-10-03T01:05:54.210Z,9.80
2018-10-03T01:07:57.534Z,9.80
2018-10-03T01:10:00.510Z,9.80
2018-10-03T01:12:03.482Z,9.80
2018-10-03T01:14:06.656Z,9.80
2018-10-03T01:16:09.624Z,9.90
2018-10-03T01:18:12.631Z,9.90
2018-10-03T01:20:15.661Z,9.90
2018-10-03T01:22:18.665Z,9.90
2018-10-03T01:24:23.324Z,9.90
2018-10-03T01:26:26.344Z,9.90
2018-10-03T01:28:29.412Z,9.90
2018-10-03T01:30:32.735Z,9.90
2018-10-03T01:32:35.707Z,10.00
2018-10-03T01:34:38.709Z,9.90
2018-10-03T01:36:41.721Z,9.90
2018-10-03T01:38:44.753Z,9.90
2018-10-03T01:40:47.761Z,9.90
2018-10-03T01:42:52.617Z,9.90
2018-10-03T01:44:55.609Z,9.90
2018-10-03T01:46:58.612Z,9.90
2018-10-03T01:49:01.636Z,9.90
2018-10-03T01:51:04.628Z,9.90
2018-10-03T01:53:07.645Z,9.90
2018-10-03T01:55:10.655Z,9.90
2018-10-03T01:57:13.856Z,10.00
2018-10-03T01:59:16.848Z,10.00
2018-10-03T02:01:19.842Z,10.00
2018-10-03T02:03:24.590Z,9.90
2018-10-03T02:05:27.565Z,9.90
2018-10-03T02:07:30.883Z,9.90
2018-10-03T02:09:33.869Z,9.90
2018-10-03T02:11:36.826Z,9.90
2018-10-03T02:13:39.839Z,9.90
2018-10-03T02:15:42.804Z,9.90
2018-10-03T02:17:46.178Z,9.90
2018-10-03T02:19:49.264Z,9.80
2018-10-03T02:21:54.333Z,9.80
2018-10-03T02:23:57.340Z,9.80
2018-10-03T02:26:00.341Z,9.80
2018-10-03T02:28:03.392Z,9.80
2018-10-03T02:30:06.675Z,9.70
2018-10-03T02:32:09.703Z,9.70
2018-10-03T02:34:12.817Z,9.70
2018-10-03T02:36:15.813Z,9.70
2018-10-03T02:38:18.870Z,9.60
2018-10-03T02:40:23.409Z,9.60
2018-10-03T02:42:26.385Z,9.60
2018-10-03T02:44:29.428Z,9.60
2018-10-03T02:46:32.474Z,9.60
2018-10-03T02:48:35.785Z,9.60
2018-10-03T02:50:38.786Z,9.60
2018-10-03T02:52:41.772Z,9.70
2018-10-03T02:54:44.803Z,9.70
2018-10-03T02:56:47.801Z,9.70
2018-10-03T02:58:52.529Z,9.70
2018-10-03T03:00:55.569Z,9.80
2018-10-03T03:02:58.577Z,9.80
2018-10-03T03:05:01.592Z,9.80
2018-10-03T03:07:04.661Z,9.80
2018-10-03T03:09:10.443Z,9.80
2018-10-03T03:11:13.401Z,9.70
2018-10-03T03:13:16.579Z,9.80
2018-10-03T03:15:19.593Z,9.80
2018-10-03T03:17:23.874Z,9.80
2018-10-03T03:19:27.173Z,9.80
2018-10-03T03:21:30.269Z,9.80
2018-10-03T03:23:33.233Z,9.80
2018-10-03T03:25:36.618Z,9.80
2018-10-03T03:27:39.974Z,9.80
2018-10-03T03:29:43.356Z,9.80
2018-10-03T03:31:46.461Z,9.80
2018-10-03T03:33:49.478Z,9.70
2018-10-03T03:35:54.357Z,9.70
2018-10-03T03:37:57.329Z,9.70
2018-10-03T03:40:00.286Z,9.70
2018-10-03T03:42:03.508Z,9.70
2018-10-03T03:44:06.596Z,9.70
2018-10-03T03:46:09.625Z,9.60
2018-10-03T03:48:12.652Z,9.60
2018-10-03T03:50:15.661Z,9.60
2018-10-03T03:52:18.652Z,9.60
2018-10-03T03:54:22.948Z,9.50
2018-10-03T03:56:25.982Z,9.50
2018-10-03T03:58:29.225Z,9.50
2018-10-03T04:00:32.280Z,9.50
2018-10-03T04:02:35.237Z,9.50
2018-10-03T04:04:38.218Z,9.40
2018-10-03T04:06:41.207Z,9.40
2018-10-03T04:08:44.429Z,9.40
2018-10-03T04:10:47.437Z,9.40
2018-10-03T04:12:52.348Z,9.30
2018-10-03T04:14:55.388Z,9.40
2018-10-03T04:16:58.402Z,9.30
2018-10-03T04:19:01.396Z,9.30
2018-10-03T04:21:04.447Z,9.30
2018-10-03T04:23:07.444Z,9.30
2018-10-03T04:25:10.453Z,9.30
2018-10-03T04:27:13.462Z,9.30
2018-10-03T04:29:16.460Z,9.30
2018-10-03T04:31:19.807Z,9.30
2018-10-03T04:33:24.416Z,9.40
2018-10-03T04:35:27.450Z,9.30
2018-10-03T04:37:30.493Z,9.30
2018-10-03T04:39:33.484Z,9.30
2018-10-03T04:41:36.777Z,9.30
2018-10-03T04:43:39.759Z,9.30
2018-10-03T04:45:42.730Z,9.40
2018-10-03T04:47:45.742Z,9.40
2018-10-03T04:49:48.923Z,9.40
2018-10-03T04:51:53.768Z,9.30
2018-10-03T04:53:56.747Z,9.40
2018-10-03T04:55:59.754Z,9.40
2018-10-03T04:58:02.988Z,9.50
2018-10-03T05:00:06.030Z,9.50
2018-10-03T05:02:09.055Z,9.50
2018-10-03T05:04:12.096Z,9.60
2018-10-03T05:06:15.125Z,9.50
2018-10-03T05:08:18.133Z,9.50
2018-10-03T05:10:22.775Z,9.60
2018-10-03T05:12:25.756Z,9.50
2018-10-03T05:14:28.825Z,9.60
2018-10-03T05:16:31.844Z,9.60
2018-10-03T05:18:35.219Z,9.60
2018-10-03T05:20:38.221Z,9.60
2018-10-03T05:22:41.254Z,9.60
2018-10-03T05:24:44.560Z,9.70
2018-10-03T05:26:47.584Z,9.70
2018-10-03T05:28:52.274Z,9.60
2018-10-03T05:30:55.345Z,9.60
2018-10-03T05:32:58.354Z,9.60
2018-10-03T05:35:01.383Z,9.60
2018-10-03T05:37:04.399Z,9.70
2018-10-03T05:39:10.116Z,9.70
2018-10-03T05:41:13.178Z,9.70
2018-10-03T05:43:16.262Z,9.70
2018-10-03T05:45:19.273Z,9.70
2018-10-03T05:47:24.050Z,9.70
2018-10-03T05:49:27.113Z,9.70
2018-10-03T05:51:30.149Z,9.70
2018-10-03T05:53:33.145Z,9.70
2018-10-03T05:55:36.214Z,9.70
2018-10-03T05:57:39.538Z,9.70
2018-10-03T05:59:42.568Z,9.70
2018-10-03T06:01:45.635Z,9.70
2018-10-03T06:03:48.607Z,9.70
2018-10-03T06:05:53.221Z,9.70
2018-10-03T06:07:56.227Z,9.70
2018-10-03T06:09:59.215Z,9.70
2018-10-03T06:12:02.211Z,9.70
2018-10-03T06:14:05.441Z,9.70
2018-10-03T06:16:08.513Z,9.80
2018-10-03T06:18:11.516Z,9.80
2018-10-03T06:20:18.718Z,9.80
2018-10-03T06:22:23.790Z,9.80
2018-10-03T06:24:26.754Z,9.90
2018-10-03T06:26:29.782Z,9.90
2018-10-03T06:28:32.798Z,9.90
2018-10-03T06:30:35.991Z,9.90
2018-10-03T06:32:39.040Z,9.90
2018-10-03T06:34:42.194Z,9.90
2018-10-03T06:36:45.535Z,9.90
2018-10-03T06:38:48.558Z,9.90
2018-10-03T06:40:53.557Z,10.10
2018-10-03T06:42:56.611Z,10.20
2018-10-03T06:44:59.674Z,10.20
2018-10-03T06:47:03.044Z,10.30
2018-10-03T06:49:06.121Z,10.30
2018-10-03T06:51:10.038Z,10.40
2018-10-03T06:53:14.003Z,10.50
2018-10-03T06:55:17.839Z,10.40
2018-10-03T06:57:22.441Z,10.50
2018-10-03T06:59:26.219Z,10.40
2018-10-03T07:01:30.387Z,10.40
2018-10-03T07:03:34.403Z,10.40
2018-10-03T07:05:38.432Z,10.40
2018-10-03T07:07:42.359Z,10.40
2018-10-03T07:09:46.279Z,10.30
2018-10-03T07:11:50.171Z,10.30
2018-10-03T07:13:56.168Z,10.40
2018-10-03T07:16:00.430Z,10.40
2018-10-03T07:18:04.549Z,10.50
2018-10-03T07:20:08.639Z,10.50
2018-10-03T07:22:12.648Z,10.50
2018-10-03T07:24:16.463Z,10.50
2018-10-03T07:26:20.291Z,10.50
2018-10-03T07:28:24.953Z,10.60
2018-10-03T07:30:28.151Z,10.60
2018-10-03T07:32:31.325Z,10.60
2018-10-03T07:34:34.421Z,10.60
2018-10-03T07:36:37.440Z,10.60
2018-10-03T07:38:40.521Z,10.60
2018-10-03T07:40:43.749Z,10.60
2018-10-03T07:42:46.865Z,10.60
2018-10-03T07:44:50.150Z,10.60
2018-10-03T07:46:55.317Z,10.60
2018-10-03T07:48:58.296Z,10.60
2018-10-03T07:51:01.415Z,10.70
2018-10-03T07:53:04.485Z,10.80
2018-10-03T07:55:07.467Z,10.90
2018-10-03T07:57:10.496Z,10.90
2018-10-03T07:59:13.515Z,10.90
2018-10-03T08:01:16.639Z,10.80
2018-10-03T08:03:19.604Z,10.80
2018-10-03T08:05:24.458Z,10.80
2018-10-03T08:07:27.536Z,10.90
2018-10-03T08:09:30.605Z,10.90
2018-10-03T08:11:33.578Z,10.90
2018-10-03T08:13:36.981Z,10.90
2018-10-03T08:15:39.980Z,11.00
2018-10-03T08:17:43.033Z,11.10
2018-10-03T08:19:46.411Z,11.20
2018-10-03T08:21:49.421Z,11.20
2018-10-03T08:23:53.734Z,11.40
2018-10-03T08:25:57.049Z,11.40
2018-10-03T08:28:00.039Z,11.50
2018-10-03T08:30:03.190Z,11.60
2018-10-03T08:32:06.387Z,11.70
2018-10-03T08:34:09.457Z,11.90
2018-10-03T08:36:12.511Z,12.10
2018-10-03T08:38:15.581Z,12.30
2018-10-03T08:40:18.582Z,12.40
2018-10-03T08:42:22.924Z,12.30
2018-10-03T08:44:25.938Z,12.30
2018-10-03T08:46:28.960Z,12.20
2018-10-03T08:48:32.204Z,12.20
2018-10-03T08:50:35.213Z,12.20
2018-10-03T08:52:38.310Z,12.30
2018-10-03T08:54:41.393Z,12.20
2018-10-03T08:56:44.457Z,12.20
2018-10-03T08:58:47.760Z,12.20
2018-10-03T09:00:52.614Z,12.20
2018-10-03T09:02:55.685Z,12.20
2018-10-03T09:04:58.845Z,12.30
2018-10-03T09:07:01.895Z,12.30
2018-10-03T09:09:07.751Z,12.40
2018-10-03T09:11:10.818Z,12.50
2018-10-03T09:13:14.166Z,12.40
2018-10-03T09:15:17.304Z,12.50
2018-10-03T09:17:20.327Z,12.70
2018-10-03T09:19:25.476Z,13.00
2018-10-03T09:21:28.563Z,13.00
2018-10-03T09:23:31.542Z,13.10
2018-10-03T09:25:34.577Z,13.30
2018-10-03T09:27:37.558Z,13.40
2018-10-03T09:29:40.589Z,13.40
2018-10-03T09:31:43.677Z,13.40
2018-10-03T09:33:46.824Z,13.40
2018-10-03T09:35:49.999Z,13.50
2018-10-03T09:37:54.147Z,13.30
2018-10-03T09:39:57.148Z,13.30
2018-10-03T09:42:00.180Z,13.40
2018-10-03T09:44:03.199Z,13.40
2018-10-03T09:46:06.262Z,13.30
2018-10-03T09:48:09.284Z,13.20
2018-10-03T09:50:12.276Z,13.20
2018-10-03T09:52:15.268Z,13.30
2018-10-03T09:54:18.255Z,13.50
2018-10-03T09:56:23.011Z,13.60
2018-10-03T09:58:26.036Z,13.90
2018-10-03T10:00:34.902Z,14.00
2018-10-03T10:02:39.485Z,14.00
2018-10-03T10:04:42.519Z,13.80
2018-10-03T10:06:45.495Z,13.90
2018-10-03T10:08:48.533Z,13.80
2018-10-03T10:10:53.293Z,13.80
2018-10-03T10:12:56.279Z,13.80
2018-10-03T10:14:59.320Z,13.70
2018-10-03T10:17:02.308Z,13.70
2018-10-03T10:19:05.531Z,13.90
2018-10-03T10:21:08.490Z,14.00
2018-10-03T10:23:11.468Z,14.10
2018-10-03T10:25:14.663Z,14.30
2018-10-03T10:27:17.652Z,14.10
2018-10-03T10:29:22.039Z,14.10
2018-10-03T10:31:25.311Z,14.10
2018-10-03T10:33:28.292Z,14.20
2018-10-03T10:35:31.332Z,14.00
2018-10-03T10:37:34.400Z,14.10
2018-10-03T10:39:37.398Z,14.30
2018-10-03T10:41:40.577Z,14.40
2018-10-03T10:43:43.612Z,14.30
2018-10-03T10:45:46.827Z,14.20
2018-10-03T10:47:50.251Z,14.30
2018-10-03T10:49:54.347Z,14.40
2018-10-03T10:51:57.312Z,14.40
2018-10-03T10:54:00.579Z,14.50
2018-10-03T10:56:03.548Z,14.60
2018-10-03T10:58:06.959Z,14.80
2018-10-03T11:00:09.803Z,15.00
2018-10-03T11:02:12.804Z,15.10
2018-10-03T11:04:15.775Z,15.30
2018-10-03T11:06:18.860Z,15.00
2018-10-03T11:08:23.049Z,14.70
2018-10-03T11:10:26.135Z,14.70
2018-10-03T11:12:29.143Z,14.80
2018-10-03T11:14:32.127Z,15.00
2018-10-03T11:16:35.108Z,15.20
2018-10-03T11:18:38.135Z,15.10
2018-10-03T11:20:41.184Z,15.00
2018-10-03T11:22:44.219Z,14.90
2018-10-03T11:24:47.391Z,14.80
2018-10-03T11:26:50.383Z,14.70
2018-10-03T11:28:53.704Z,15.00
2018-10-03T11:30:56.687Z,14.90
2018-10-03T11:32:59.753Z,14.70
2018-10-03T11:35:03.075Z,14.40
2018-10-03T11:37:06.211Z,14.30
2018-10-03T11:39:09.518Z,14.20
2018-10-03T11:41:12.547Z,14.20
2018-10-03T11:43:15.531Z,14.20
2018-10-03T11:45:18.573Z,14.40
2018-10-03T11:47:22.868Z,14.70
2018-10-03T11:49:25.832Z,14.70
2018-10-03T11:51:28.971Z,14.70
2018-10-03T11:53:31.987Z,14.90
2018-10-03T11:55:34.972Z,15.20
2018-10-03T11:57:38.123Z,15.40
2018-10-03T11:59:41.133Z,15.50
2018-10-03T12:01:44.107Z,15.50
2018-10-03T12:03:47.415Z,15.40
2018-10-03T12:05:50.367Z,15.20
2018-10-03T12:07:54.433Z,15.20
2018-10-03T12:09:57.700Z,15.30
2018-10-03T12:12:00.731Z,15.50
2018-10-03T12:14:03.806Z,15.40
2018-10-03T12:16:06.851Z,15.10
2018-10-03T12:18:09.862Z,14.80
2018-10-03T12:20:12.879Z,14.80
2018-10-03T12:22:15.900Z,14.70
2018-10-03T12:24:18.873Z,14.60
2018-10-03T12:26:23.892Z,14.40
2018-10-03T12:28:26.891Z,14.20
2018-10-03T12:30:29.915Z,14.00
2018-10-03T12:32:32.940Z,13.50
2018-10-03T12:34:35.931Z,13.10
2018-10-03T12:36:39.226Z,12.90
2018-10-03T12:38:42.526Z,12.70
2018-10-03T12:40:45.897Z,12.80
2018-10-03T12:42:50.050Z,12.80
2018-10-03T12:44:54.250Z,12.90
2018-10-03T12:46:58.265Z,12.90
2018-10-03T12:49:01.245Z,12.80
2018-10-03T12:51:04.231Z,12.60
2018-10-03T12:53:07.232Z,12.40
2018-10-03T12:55:10.216Z,12.20
2018-10-03T12:57:13.221Z,12.20
2018-10-03T12:59:16.240Z,12.40
2018-10-03T13:01:19.316Z,12.80
2018-10-03T13:03:23.592Z,13.00
2018-10-03T13:05:26.703Z,13.20
2018-10-03T13:07:29.708Z,13.10
2018-10-03T13:09:32.721Z,13.00
2018-10-03T13:11:35.711Z,13.10
2018-10-03T13:13:38.964Z,13.40
2018-10-03T13:15:41.959Z,13.70
2018-10-03T13:17:44.980Z,13.90
2018-10-03T13:19:47.991Z,13.90
2018-10-03T13:21:52.647Z,14.10
2018-10-03T13:23:55.784Z,14.30
2018-10-03T13:25:58.756Z,14.40
2018-10-03T13:28:01.791Z,14.30
2018-10-03T13:30:05.092Z,14.10
2018-10-03T13:32:08.129Z,13.90
2018-10-03T13:34:11.108Z,13.90
2018-10-03T13:36:14.090Z,13.70
2018-10-03T13:38:17.109Z,13.60
2018-10-03T13:40:20.092Z,13.60
2018-10-03T13:42:24.595Z,13.70
2018-10-03T13:44:27.558Z,13.90
2018-10-03T13:46:30.619Z,14.10
2018-10-03T13:48:33.654Z,14.30
2018-10-03T13:50:36.629Z,14.30
2018-10-03T13:52:39.717Z,14.50
2018-10-03T13:54:42.843Z,14.40
2018-10-03T13:56:45.940Z,14.50
2018-10-03T13:58:49.126Z,14.50
2018-10-03T14:00:53.599Z,14.40
2018-10-03T14:02:56.639Z,14.50
2018-10-03T14:05:00.072Z,14.60
2018-10-03T14:07:03.039Z,14.80
2018-10-03T14:09:08.432Z,14.90
2018-10-03T14:11:11.452Z,14.90
2018-10-03T14:13:14.474Z,14.90
2018-10-03T14:15:17.420Z,14.80
2018-10-03T14:17:22.202Z,14.70
2018-10-03T14:19:25.207Z,14.80
2018-10-03T14:21:28.237Z,14.80
2018-10-03T14:23:31.243Z,14.60
2018-10-03T14:25:34.268Z,14.50
2018-10-03T14:27:37.266Z,14.40
2018-10-03T14:29:40.583Z,14.40
2018-10-03T14:31:43.618Z,14.20
2018-10-03T14:33:46.633Z,14.10
2018-10-03T14:35:49.672Z,13.90
2018-10-03T14:37:53.988Z,13.80
2018-10-03T14:39:57.138Z,13.80
2018-10-03T14:42:00.702Z,13.80
2018-10-03T14:44:03.740Z,13.80
2018-10-03T14:46:06.927Z,13.80
2018-10-03T14:48:09.927Z,13.90
2018-10-03T14:50:12.887Z,13.90
2018-10-03T14:52:16.121Z,14.10
2018-10-03T14:54:19.140Z,14.30
2018-10-03T14:56:23.841Z,14.50
2018-10-03T14:58:26.953Z,14.80
2018-10-03T15:00:29.908Z,14.80
2018-10-03T15:02:33.090Z,14.90
2018-10-03T15:04:36.099Z,15.00
2018-10-03T15:06:39.087Z,15.20
2018-10-03T15:08:42.620Z,15.20
2018-10-03T15:10:45.620Z,15.20
2018-10-03T15:12:48.638Z,15.20
2018-10-03T15:14:53.363Z,15.00
2018-10-03T15:16:56.330Z,14.90
2018-10-03T15:18:59.310Z,14.70
2018-10-03T15:21:02.493Z,14.40
2018-10-03T15:23:05.502Z,14.10
2018-10-03T15:25:08.504Z,13.90
2018-10-03T15:27:11.532Z,13.70
2018-10-03T15:29:14.538Z,13.60
2018-10-03T15:31:17.552Z,13.60
2018-10-03T15:33:22.332Z,13.50
2018-10-03T15:35:25.452Z,13.50
2018-10-03T15:37:28.449Z,13.40
2018-10-03T15:39:31.620Z,13.40
2018-10-03T15:41:53.723Z,13.40
2018-10-03T15:43:56.740Z,13.40
2018-10-03T15:45:59.799Z,13.30
2018-10-03T15:48:02.889Z,13.40
2018-10-03T15:50:06.763Z,13.60
2018-10-03T15:52:09.736Z,13.70
2018-10-03T15:54:12.761Z,13.80
2018-10-03T15:56:15.776Z,13.80
2018-10-03T15:58:18.883Z,13.80
2018-10-03T16:00:23.615Z,13.60
2018-10-03T16:02:26.636Z,13.50
2018-10-03T16:04:29.616Z,13.40
2018-10-03T16:06:35.417Z,13.30
2018-10-03T16:08:38.456Z,13.20
2018-10-03T16:10:41.443Z,13.10
2018-10-03T16:12:44.703Z,13.00
2018-10-03T16:14:47.672Z,12.90
2018-10-03T16:16:52.252Z,12.90
2018-10-03T16:18:55.545Z,12.80
2018-10-03T16:20:58.550Z,12.70
2018-10-03T16:23:01.580Z,12.70
2018-10-03T16:25:04.965Z,12.60
2018-10-03T16:27:08.044Z,12.50
2018-10-03T16:29:11.043Z,12.40
2018-10-03T16:31:14.060Z,12.40
2018-10-03T16:33:17.074Z,12.40
2018-10-03T16:35:20.076Z,12.30
2018-10-03T16:37:24.655Z,12.30
2018-10-03T16:39:27.672Z,12.20
2018-10-03T16:41:31.005Z,12.10
2018-10-03T16:43:34.002Z,12.00
2018-10-03T16:45:36.975Z,12.00
2018-10-03T16:47:39.983Z,12.00
2018-10-03T16:49:43.011Z,11.90
2018-10-03T16:51:46.411Z,11.90
2018-10-03T16:53:49.424Z,11.90
2018-10-03T16:55:53.992Z,11.90
2018-10-03T16:57:57.077Z,11.90
2018-10-03T17:00:00.157Z,11.90
2018-10-03T17:02:03.247Z,11.90
2018-10-03T17:04:07.290Z,11.90
2018-10-03T17:06:10.479Z,11.90
2018-10-03T17:08:13.820Z,11.80
2018-10-03T17:10:16.825Z,11.80
2018-10-03T17:12:19.834Z,11.80
2018-10-03T17:14:29.172Z,11.70
2018-10-03T17:16:32.324Z,11.70
2018-10-03T17:18:35.971Z,11.70
2018-10-03T17:20:39.105Z,11.60
2018-10-03T17:22:42.140Z,11.60
2018-10-03T17:24:45.235Z,11.60
2018-10-03T17:26:48.264Z,11.60
2018-10-03T17:28:52.937Z,11.60
2018-10-03T17:30:55.930Z,11.60
2018-10-03T17:32:59.012Z,11.60
2018-10-03T17:35:02.132Z,11.60
2018-10-03T17:37:05.146Z,11.60
2018-10-03T17:39:08.901Z,11.50
2018-10-03T17:41:11.897Z,11.50
2018-10-03T17:43:14.912Z,11.40
2018-10-03T17:45:18.171Z,11.30
2018-10-03T17:47:22.523Z,11.20
2018-10-03T17:49:25.554Z,11.10
2018-10-03T17:51:28.576Z,11.10
2018-10-03T17:53:31.580Z,11.00
2018-10-03T17:55:36.248Z,10.90
2018-10-03T17:57:44.232Z,10.90
2018-10-03T17:59:48.228Z,10.80
2018-10-03T18:01:53.283Z,10.60
2018-10-03T18:03:56.389Z,10.60
2018-10-03T18:05:59.507Z,10.50
2018-10-03T18:08:02.738Z,10.50
2018-10-03T18:10:06.135Z,10.40
2018-10-03T18:12:09.302Z,10.30
2018-10-03T18:14:12.308Z,10.30
2018-10-03T18:16:15.664Z,10.20
2018-10-03T18:18:18.740Z,10.10
2018-10-03T18:20:23.334Z,10.10
2018-10-03T18:22:26.359Z,10.00
2018-10-03T18:24:29.364Z,9.90
2018-10-03T18:26:32.395Z,9.80
2018-10-03T18:28:35.437Z,9.80
2018-10-03T18:30:38.443Z,9.70
2018-10-03T18:32:41.424Z,9.70
2018-10-03T18:34:44.431Z,9.70
2018-10-03T18:36:47.483Z,9.70
2018-10-03T18:38:52.032Z,9.70
2018-10-03T18:40:55.052Z,9.70
2018-10-03T18:42:58.091Z,9.70
2018-10-03T18:45:01.234Z,9.70
2018-10-03T18:47:05.007Z,9.60
2018-10-03T18:49:09.048Z,9.50
2018-10-03T18:51:12.062Z,9.40
2018-10-03T18:53:15.191Z,9.40
2018-10-03T18:55:18.328Z,9.30
2018-10-03T18:57:22.812Z,9.30
2018-10-03T18:59:25.962Z,9.20
2018-10-03T19:01:29.041Z,9.20
2018-10-03T19:03:34.242Z,9.20
2018-10-03T19:05:37.704Z,9.20
2018-10-03T19:07:40.865Z,9.10
2018-10-03T19:09:43.947Z,9.10
2018-10-03T19:11:47.208Z,9.00
2018-10-03T19:13:50.372Z,9.00
2018-10-03T19:15:54.472Z,9.00
2018-10-03T19:17:57.547Z,9.00
2018-10-03T19:20:00.591Z,9.00
2018-10-03T19:22:03.647Z,9.00
2018-10-03T19:24:06.830Z,9.00
2018-10-03T19:26:10.096Z,8.90
2018-10-03T19:28:13.197Z,8.90
2018-10-03T19:30:16.205Z,8.90
2018-10-03T19:32:19.255Z,8.90
2018-10-03T19:34:23.731Z,8.90
2018-10-03T19:36:26.840Z,8.80
2018-10-03T19:38:30.191Z,8.80
2018-10-03T19:40:33.299Z,8.80
2018-10-03T19:42:36.290Z,8.70
2018-10-03T19:44:40.527Z,8.70
2018-10-03T19:46:43.965Z,8.70
2018-10-03T19:48:47.414Z,8.70
2018-10-03T19:50:50.488Z,8.60
2018-10-03T19:52:53.765Z,8.60
2018-10-03T19:54:56.872Z,8.60
2018-10-03T19:57:00.063Z,8.60
2018-10-03T19:59:03.006Z,8.50
2018-10-03T20:01:06.031Z,8.50
2018-10-03T20:03:09.105Z,8.50
2018-10-03T20:05:12.173Z,8.50
2018-10-03T20:07:15.194Z,8.50
2018-10-03T20:09:18.227Z,8.40
2018-10-03T20:11:22.525Z,8.40
2018-10-03T20:13:25.519Z,8.40
2018-10-03T20:15:28.567Z,8.40
2018-10-03T20:17:31.615Z,8.40
2018-10-03T20:19:34.811Z,8.40
2018-10-03T20:21:37.849Z,8.40
2018-10-03T20:23:40.957Z,8.40
2018-10-03T20:25:44.303Z,8.40
2018-10-03T20:27:47.432Z,8.40
2018-10-03T20:29:52.153Z,8.30
2018-10-03T20:31:55.647Z,8.30
2018-10-03T20:33:58.695Z,8.30
2018-10-03T20:36:01.690Z,8.30
2018-10-03T20:38:05.017Z,8.30
2018-10-03T20:40:08.172Z,8.30
2018-10-03T20:42:11.546Z,8.30
2018-10-03T20:44:14.768Z,8.30
2018-10-03T20:46:17.743Z,8.20
2018-10-03T20:48:22.513Z,8.20
2018-10-03T20:50:25.579Z,8.20
2018-10-03T20:52:28.647Z,8.20
2018-10-03T20:54:31.763Z,8.20
2018-10-03T20:56:34.775Z,8.30
2018-10-03T20:58:37.903Z,8.30
2018-10-03T21:00:41.058Z,8.30
2018-10-03T21:02:44.303Z,8.30
2018-10-03T21:04:47.718Z,8.30
2018-10-03T21:06:52.484Z,8.30
2018-10-03T21:08:55.527Z,8.20
2018-10-03T21:10:58.627Z,8.30
2018-10-03T21:13:01.766Z,8.30
2018-10-03T21:15:05.224Z,8.30
2018-10-03T21:17:08.228Z,8.30
2018-10-03T21:19:11.332Z,8.30
2018-10-03T21:21:14.445Z,8.30
2018-10-03T21:23:17.473Z,8.30
2018-10-03T21:25:20.528Z,8.30
2018-10-03T21:27:24.603Z,8.30
2018-10-03T21:29:27.614Z,8.30
2018-10-03T21:31:30.754Z,8.30
2018-10-03T21:33:33.942Z,8.20
2018-10-03T21:35:36.966Z,8.20
2018-10-03T21:37:40.034Z,8.30
2018-10-03T21:39:43.203Z,8.30
2018-10-03T21:41:46.392Z,8.30
2018-10-03T21:43:49.481Z,8.30
2018-10-03T22:01:06.203Z,8.20
2018-10-03T22:03:09.232Z,8.30
2018-10-03T22:05:12.267Z,8.30
2018-10-03T22:07:15.296Z,8.40
2018-10-03T22:09:18.316Z,8.40
2018-10-03T22:11:22.909Z,8.40
2018-10-03T22:13:25.979Z,8.40
2018-10-03T22:15:28.997Z,8.40
2018-10-03T22:17:37.991Z,8.40
2018-10-03T22:19:40.987Z,8.40
2018-10-03T22:21:44.051Z,8.40
2018-10-03T22:23:47.066Z,8.40
2018-10-03T22:25:50.079Z,8.40
2018-10-03T22:27:54.877Z,8.40
2018-10-03T22:29:58.344Z,8.50
2018-10-03T22:32:01.365Z,8.50
2018-10-03T22:34:04.360Z,8.40
2018-10-03T22:36:07.354Z,8.40
2018-10-03T22:38:10.334Z,8.50
2018-10-03T22:40:13.366Z,8.50
2018-10-03T22:42:16.661Z,8.50
2018-10-03T22:44:19.663Z,8.60
2018-10-03T22:46:23.972Z,8.60
2018-10-03T22:48:26.997Z,8.60
2018-10-03T22:50:29.968Z,8.70
2018-10-03T22:52:32.979Z,8.70
2018-10-03T22:54:36.037Z,8.70
2018-10-03T22:56:39.012Z,8.60
2018-10-03T22:58:42.344Z,8.60
2018-10-03T23:00:45.388Z,8.60
2018-10-03T23:02:48.368Z,8.60
2018-10-03T23:04:52.910Z,8.60
2018-10-03T23:06:55.956Z,8.60
2018-10-03T23:08:58.951Z,8.60
2018-10-03T23:11:02.053Z,8.60
2018-10-03T23:13:05.108Z,8.60
2018-10-03T23:15:08.164Z,8.60
2018-10-03T23:17:11.147Z,8.70
2018-10-03T23:19:14.164Z,8.70
2018-10-03T23:21:17.363Z,8.60
2018-10-03T23:23:20.385Z,8.60
2018-10-03T23:25:24.471Z,8.60
2018-10-03T23:27:27.573Z,8.60
2018-10-03T23:29:30.577Z,8.60
2018-10-03T23:31:33.796Z,8.60
2018-10-03T23:33:36.801Z,8.60
2018-10-03T23:35:39.834Z,8.60
2018-10-03T23:37:42.848Z,8.60
2018-10-03T23:39:45.880Z,8.60
2018-10-03T23:41:48.884Z,8.60
2018-10-03T23:43:53.628Z,8.60
2018-10-03T23:45:56.631Z,8.70
2018-10-03T23:47:59.662Z,8.70
2018-10-03T23:50:02.715Z,8.70
2018-10-03T23:52:05.774Z,8.70
2018-10-03T23:54:08.790Z,8.70
2018-10-03T23:56:11.775Z,8.70
2018-10-03T23:58:14.827Z,8.70
